Time;durP1;ratioP1;P1;durP2;ratioP2;P2;SDS_P1;SDS_P2;PMS_P1;PMS_P2;Temp;Humidity;BMP_temperature;BMP_pressure;BME280_temperature;BME280_humidity;BME280_pressure;Samples;Min_cycle;Max_cycle;Signal;HPM_P1;HPM_P2
2022/12/26 00:01:29;;;;;;;16.13;2.88;;;10.80;99.90;;;;;;5070297;28;20032;-52
2022/12/26 00:03:55;;;;;;;16.13;2.10;;;10.80;99.90;;;;;;5069654;28;20020;-43
2022/12/26 00:06:24;;;;;;;17.10;2.50;;;10.80;99.90;;;;;;5069651;28;20040;-46
2022/12/26 00:08:50;;;;;;;16.15;2.45;;;10.80;99.90;;;;;;5069767;28;20037;-45
2022/12/26 00:11:16;;;;;;;18.23;3.00;;;10.80;99.90;;;;;;5069931;28;20024;-56
2022/12/26 00:13:42;;;;;;;17.20;2.05;;;10.80;99.90;;;;;;5069853;28;20064;-48
2022/12/26 00:16:16;;;;;;;20.40;2.55;;;10.80;99.90;;;;;;5069943;28;20028;-48
2022/12/26 00:18:42;;;;;;;13.80;2.15;;;10.70;99.90;;;;;;5070109;28;20021;-41
2022/12/26 00:21:09;;;;;;;9.13;1.85;;;10.80;99.90;;;;;;5052651;28;20186;-53
2022/12/26 00:23:35;;;;;;;15.50;2.38;;;10.80;99.90;;;;;;5047479;28;20383;-51
2022/12/26 00:26:06;;;;;;;19.38;2.20;;;10.80;99.90;;;;;;5073745;28;20029;-47
2022/12/26 00:28:31;;;;;;;20.30;2.70;;;10.80;99.90;;;;;;5073605;28;20400;-39
2022/12/26 00:30:57;;;;;;;20.08;2.33;;;10.80;99.90;;;;;;5073880;28;20032;-42
2022/12/26 00:33:23;;;;;;;15.23;2.53;;;10.80;99.90;;;;;;5073787;28;20012;-44
2022/12/26 00:35:48;;;;;;;18.13;2.97;;;10.80;99.90;;;;;;5073769;28;20052;-45
2022/12/26 00:38:15;;;;;;;13.23;2.13;;;10.80;99.90;;;;;;5073897;28;20032;-46
2022/12/26 00:40:42;;;;;;;14.75;2.45;;;10.80;99.90;;;;;;5073793;28;20081;-41
2022/12/26 00:43:10;;;;;;;19.60;2.75;;;10.80;99.90;;;;;;5066805;28;20021;-53
2022/12/26 00:45:36;;;;;;;18.90;2.38;;;10.80;99.90;;;;;;5073625;28;20033;-39
2022/12/26 00:48:02;;;;;;;16.77;2.45;;;10.80;99.90;;;;;;5073819;28;20024;-39
2022/12/26 00:50:27;;;;;;;19.15;3.05;;;10.80;99.90;;;;;;5073683;28;20033;-39
2022/12/26 00:52:55;;;;;;;11.18;1.98;;;10.80;99.90;;;;;;5073552;28;20426;-39
2022/12/26 00:55:21;;;;;;;24.33;2.85;;;10.80;99.90;;;;;;5073476;28;20094;-38
2022/12/26 00:57:46;;;;;;;16.25;2.70;;;10.80;99.90;;;;;;5048176;28;20028;-39
2022/12/26 01:00:13;;;;;;;24.95;3.17;;;10.80;99.90;;;;;;5073557;28;20115;-39
2022/12/26 01:02:38;;;;;;;20.05;2.28;;;10.80;99.90;;;;;;5073291;28;20032;-49
2022/12/26 01:05:06;;;;;;;16.35;2.95;;;10.80;99.90;;;;;;5073378;28;20543;-41
2022/12/26 01:07:36;;;;;;;29.75;5.43;;;10.80;99.90;;;;;;5073455;28;20078;-42
2022/12/26 01:10:03;;;;;;;18.30;2.20;;;10.80;99.90;;;;;;5073277;28;20086;-41
2022/12/26 01:12:30;;;;;;;21.33;3.58;;;10.80;99.90;;;;;;5073289;28;20545;-40
2022/12/26 01:14:57;;;;;;;17.85;2.63;;;10.70;99.90;;;;;;5073365;28;20065;-39
2022/12/26 01:17:23;;;;;;;16.90;2.15;;;10.80;99.90;;;;;;5073362;28;20040;-49
2022/12/26 01:19:48;;;;;;;18.45;2.70;;;10.80;99.90;;;;;;5073275;28;20020;-45
2022/12/26 01:22:14;;;;;;;22.30;3.15;;;10.90;99.90;;;;;;5073145;28;20028;-44
2022/12/26 01:24:40;;;;;;;18.55;2.70;;;10.80;99.90;;;;;;5072957;28;20030;-39
2022/12/26 01:27:05;;;;;;;14.18;2.50;;;10.80;99.90;;;;;;5073113;28;20068;-46
2022/12/26 01:29:31;;;;;;;18.63;2.40;;;10.80;99.90;;;;;;5072816;28;20482;-42
2022/12/26 01:31:56;;;;;;;16.65;3.60;;;10.70;99.90;;;;;;5072898;28;20035;-43
2022/12/26 01:34:22;;;;;;;23.30;2.58;;;10.80;99.90;;;;;;5072225;28;20066;-39
2022/12/26 01:36:48;;;;;;;19.23;2.60;;;10.80;99.90;;;;;;5072762;28;20036;-40
2022/12/26 01:39:13;;;;;;;21.75;2.63;;;10.80;99.90;;;;;;5072968;28;20107;-50
2022/12/26 01:41:39;;;;;;;26.70;3.28;;;10.80;99.90;;;;;;5072594;28;20032;-44
2022/12/26 01:44:26;;;;;;;19.10;3.00;;;10.80;99.90;;;;;;5072795;28;20013;-43
2022/12/26 01:46:52;;;;;;;16.42;2.85;;;10.80;99.90;;;;;;5072406;28;20017;-48
2022/12/26 01:49:36;;;;;;;20.13;3.42;;;10.90;99.90;;;;;;5072639;28;20036;-51
2022/12/26 01:52:11;;;;;;;19.17;2.20;;;10.90;99.90;;;;;;5072436;28;20074;-41
2022/12/26 01:54:39;;;;;;;25.25;3.15;;;10.90;99.90;;;;;;5072526;28;20468;-44
2022/12/26 01:57:10;;;;;;;19.50;2.50;;;10.90;99.90;;;;;;5072310;28;20012;-39
2022/12/26 01:59:39;;;;;;;18.85;2.65;;;10.90;99.90;;;;;;5072593;28;20502;-44
2022/12/26 02:02:05;;;;;;;29.75;3.13;;;10.90;99.90;;;;;;5054366;28;20388;-42
2022/12/26 02:07:24;;;;;;;19.20;2.25;;;10.90;99.90;;;;;;5072288;28;20040;-50
2022/12/26 02:09:50;;;;;;;21.33;3.10;;;10.90;99.90;;;;;;5072025;28;20116;-48
2022/12/26 02:12:29;;;;;;;23.85;2.40;;;10.90;99.90;;;;;;5072199;28;20070;-50
2022/12/26 02:14:57;;;;;;;17.42;2.63;;;10.90;99.90;;;;;;5072028;28;20032;-53
2022/12/26 02:17:24;;;;;;;20.13;2.53;;;10.90;99.90;;;;;;5072178;28;20021;-56
2022/12/26 02:19:58;;;;;;;20.27;2.30;;;10.90;99.90;;;;;;5072211;28;20075;-56
2022/12/26 02:22:56;;;;;;;17.50;2.60;;;10.90;99.90;;;;;;5072098;28;20035;-48
2022/12/26 02:25:53;;;;;;;18.17;2.20;;;10.90;99.90;;;;;;5071901;28;20113;-54
2022/12/26 02:28:48;;;;;;;27.33;3.78;;;10.90;99.90;;;;;;5071574;28;20508;-47
2022/12/26 02:31:34;;;;;;;25.63;3.15;;;10.90;99.90;;;;;;5071864;28;20112;-44
2022/12/26 02:34:16;;;;;;;27.25;3.05;;;10.90;99.90;;;;;;5071695;28;20108;-56
2022/12/26 02:37:00;;;;;;;20.42;2.42;;;11.00;99.90;;;;;;5053668;28;20508;-44
2022/12/26 02:39:31;;;;;;;19.40;2.45;;;10.90;99.90;;;;;;5071618;28;20052;-47
2022/12/26 02:42:25;;;;;;;15.15;2.63;;;11.00;99.90;;;;;;5053484;28;20494;-41
2022/12/26 02:48:10;;;;;;;23.50;3.15;;;11.00;99.90;;;;;;5071685;28;20051;-51
2022/12/26 03:13:47;;;;;;;22.70;3.35;;;11.00;99.90;;;;;;5080631;28;20153;-48
2022/12/26 03:19:04;;;;;;;18.80;3.13;;;11.10;99.90;;;;;;5091576;28;20104;-40
2022/12/26 03:21:36;;;;;;;20.83;2.55;;;11.10;99.90;;;;;;5090697;28;20034;-57
2022/12/26 03:24:01;;;;;;;23.20;3.00;;;11.10;99.90;;;;;;5091175;28;20467;-51
2022/12/26 03:26:41;;;;;;;21.42;2.42;;;11.10;99.90;;;;;;5090888;28;20031;-50
2022/12/26 03:32:11;;;;;;;21.58;2.78;;;11.00;99.90;;;;;;5078110;28;20038;-45
2022/12/26 03:34:41;;;;;;;21.35;3.17;;;10.90;99.90;;;;;;5090976;28;20028;-38
2022/12/26 03:37:32;;;;;;;22.80;3.58;;;10.80;99.90;;;;;;5064213;28;20040;-43
2022/12/26 04:46:30;;;;;;;21.25;2.10;;;9.60;99.90;;;;;;5094268;28;20159;-42
2022/12/26 04:51:43;;;;;;;16.90;1.92;;;9.60;99.90;;;;;;5093905;28;20509;-56
2022/12/26 04:54:08;;;;;;;19.35;2.83;;;9.60;99.90;;;;;;5094060;28;20020;-47
2022/12/26 04:56:34;;;;;;;13.48;1.85;;;9.60;99.90;;;;;;5075756;28;20026;-48
2022/12/26 04:59:00;;;;;;;10.18;1.92;;;9.70;99.90;;;;;;5093867;28;20382;-41
2022/12/26 05:09:49;;;;;;;16.45;2.03;;;9.70;99.90;;;;;;5092615;28;20527;-43
2022/12/26 05:12:15;;;;;;;10.48;1.73;;;9.70;99.90;;;;;;5093502;28;20114;-43
2022/12/26 05:14:40;;;;;;;13.88;3.35;;;9.60;99.90;;;;;;5093668;28;20428;-48
2022/12/26 05:31:03;;;;;;;10.27;1.20;;;9.60;99.90;;;;;;5093475;28;20129;-40
2022/12/26 05:36:16;;;;;;;8.48;1.20;;;9.60;99.90;;;;;;5093395;28;20047;-39
2022/12/26 05:38:42;;;;;;;3.83;0.77;;;9.60;99.90;;;;;;5093133;28;20046;-41
2022/12/26 05:41:07;;;;;;;4.10;1.23;;;9.60;99.90;;;;;;5092868;28;20039;-48
2022/12/26 05:43:33;;;;;;;6.65;1.08;;;9.50;99.90;;;;;;5093166;28;20048;-50
2022/12/26 05:45:59;;;;;;;4.78;0.80;;;9.50;99.90;;;;;;5093148;28;20074;-46
2022/12/26 05:48:24;;;;;;;2.97;0.85;;;9.50;99.90;;;;;;5092820;28;20526;-44
2022/12/26 05:50:50;;;;;;;4.78;0.60;;;9.40;99.90;;;;;;5092909;28;20040;-42
2022/12/26 05:53:16;;;;;;;2.67;0.85;;;9.30;99.90;;;;;;5092629;28;20111;-38
2022/12/26 05:55:41;;;;;;;1.05;0.50;;;9.30;99.90;;;;;;5092764;28;20034;-44
2022/12/26 05:58:07;;;;;;;4.28;0.73;;;9.20;99.90;;;;;;5092520;28;20101;-45
2022/12/26 06:00:32;;;;;;;1.02;0.52;;;9.20;99.90;;;;;;5092866;28;20031;-48
2022/12/26 06:02:59;;;;;;;0.85;0.60;;;9.20;99.90;;;;;;5092554;28;20032;-46
2022/12/26 06:05:25;;;;;;;2.25;0.77;;;9.20;99.90;;;;;;5092589;28;20043;-51
2022/12/26 06:07:51;;;;;;;2.80;0.60;;;9.10;99.90;;;;;;5092571;28;20502;-44
2022/12/26 06:10:16;;;;;;;4.07;0.75;;;9.00;99.90;;;;;;5092401;28;20043;-45
2022/12/26 06:12:42;;;;;;;2.83;0.80;;;9.00;99.90;;;;;;5092174;28;20375;-49
2022/12/26 06:15:08;;;;;;;2.63;0.70;;;8.90;99.90;;;;;;5092480;28;20031;-39
2022/12/26 06:17:34;;;;;;;2.20;0.80;;;8.90;99.90;;;;;;5092284;28;20016;-50
2022/12/26 06:20:00;;;;;;;5.10;0.98;;;8.90;99.90;;;;;;5074600;28;20035;-53
2022/12/26 06:22:28;;;;;;;2.47;0.70;;;8.90;99.90;;;;;;5053830;28;20032;-42
2022/12/26 06:24:53;;;;;;;6.13;0.95;;;8.80;99.90;;;;;;5071879;28;20030;-46
2022/12/26 06:27:19;;;;;;;8.93;1.42;;;8.80;99.90;;;;;;5071254;28;20091;-47
2022/12/26 06:29:44;;;;;;;4.20;1.13;;;8.80;99.90;;;;;;5070973;28;20052;-40
2022/12/26 06:32:10;;;;;;;4.25;1.17;;;8.80;99.90;;;;;;5071712;28;20080;-43
2022/12/26 06:34:36;;;;;;;2.80;0.85;;;8.80;99.90;;;;;;5071593;28;20027;-46
2022/12/26 06:37:01;;;;;;;4.00;0.80;;;8.70;99.90;;;;;;5071583;28;20078;-41
2022/12/26 06:39:27;;;;;;;4.57;0.80;;;8.70;99.90;;;;;;5071511;28;20028;-56
2022/12/26 06:41:53;;;;;;;2.90;0.70;;;8.60;99.90;;;;;;5071898;28;20380;-42
2022/12/26 06:44:18;;;;;;;3.53;0.90;;;8.50;99.90;;;;;;5071601;28;20028;-41
2022/12/26 06:46:44;;;;;;;2.03;0.90;;;8.50;99.90;;;;;;5071432;28;20419;-42
2022/12/26 06:49:10;;;;;;;2.95;0.90;;;8.50;99.90;;;;;;5071231;28;20453;-46
2022/12/26 06:51:36;;;;;;;2.70;0.95;;;8.50;99.90;;;;;;5048119;28;20028;-43
2022/12/26 06:54:01;;;;;;;3.97;1.00;;;8.50;99.90;;;;;;5070916;28;20540;-45
2022/12/26 06:56:28;;;;;;;2.30;0.88;;;8.50;99.90;;;;;;5070807;28;20063;-46
2022/12/26 06:58:56;;;;;;;2.40;0.90;;;8.50;99.90;;;;;;5070653;28;20025;-44
2022/12/26 07:01:23;;;;;;;3.90;0.80;;;8.50;99.90;;;;;;5071306;28;20466;-42
2022/12/26 07:03:51;;;;;;;2.50;0.70;;;8.50;99.90;;;;;;5072433;28;20071;-43
2022/12/26 07:06:29;;;;;;;1.40;0.70;;;8.50;99.90;;;;;;5091624;28;20012;-41
2022/12/26 07:09:00;;;;;;;1.42;0.50;;;8.50;99.90;;;;;;5073761;28;20123;-51
2022/12/26 07:11:29;;;;;;;1.95;0.70;;;8.50;99.90;;;;;;5052930;28;20031;-39
2022/12/26 07:13:55;;;;;;;2.53;0.50;;;8.40;99.90;;;;;;5071177;28;20017;-39
2022/12/26 07:16:22;;;;;;;1.75;0.60;;;8.30;99.90;;;;;;5070906;28;20166;-50
2022/12/26 07:18:47;;;;;;;2.03;0.60;;;8.30;99.90;;;;;;5071009;28;20106;-41
2022/12/26 07:21:14;;;;;;;2.45;0.60;;;8.20;99.90;;;;;;5071877;28;20487;-40
2022/12/26 07:23:40;;;;;;;1.38;0.60;;;8.20;99.90;;;;;;5083586;28;20103;-43
2022/12/26 07:26:07;;;;;;;1.10;0.40;;;8.10;99.90;;;;;;5078872;28;20436;-45
2022/12/26 07:28:33;;;;;;;1.25;0.60;;;8.00;99.90;;;;;;5079506;28;20056;-44
2022/12/26 07:30:59;;;;;;;1.55;0.45;;;8.00;99.90;;;;;;5069751;28;20431;-39
2022/12/26 07:33:26;;;;;;;2.50;0.50;;;7.90;99.90;;;;;;5074073;28;20463;-42
2022/12/26 07:35:52;;;;;;;0.77;0.50;;;7.90;99.90;;;;;;5078081;28;20033;-39
2022/12/26 07:38:18;;;;;;;4.55;0.63;;;7.80;99.90;;;;;;5070231;28;20357;-39
2022/12/26 07:40:44;;;;;;;2.83;0.70;;;7.80;99.90;;;;;;5072230;28;20032;-38
2022/12/26 07:43:09;;;;;;;1.65;0.52;;;7.80;99.90;;;;;;5070380;28;20021;-39
2022/12/26 07:45:35;;;;;;;1.33;0.52;;;7.70;99.90;;;;;;5070192;28;20029;-43
2022/12/26 07:48:01;;;;;;;2.50;0.63;;;7.70;99.90;;;;;;5070422;28;20028;-42
2022/12/26 07:50:27;;;;;;;1.60;0.43;;;7.70;99.90;;;;;;5070902;28;20388;-42
2022/12/26 07:52:53;;;;;;;1.52;0.50;;;7.60;99.90;;;;;;5070500;28;20024;-39
2022/12/26 07:55:19;;;;;;;2.78;1.10;;;7.60;99.90;;;;;;5051603;28;20036;-42
2022/12/26 07:57:49;;;;;;;1.55;0.65;;;7.50;99.90;;;;;;5070628;28;20025;-40
2022/12/26 08:00:17;;;;;;;5.80;0.68;;;7.40;99.90;;;;;;5070312;28;20059;-38
2022/12/26 08:02:43;;;;;;;3.03;1.15;;;7.40;99.90;;;;;;5070234;28;20745;-40
2022/12/26 08:05:09;;;;;;;2.28;0.60;;;7.30;99.90;;;;;;5083249;28;20024;-40
2022/12/26 08:07:34;;;;;;;3.38;0.65;;;7.30;99.90;;;;;;5086064;28;20021;-39
2022/12/26 08:10:00;;;;;;;3.42;0.80;;;7.20;99.90;;;;;;5062895;28;20032;-44
2022/12/26 08:12:25;;;;;;;5.95;1.00;;;7.10;99.90;;;;;;5090555;28;20024;-39
2022/12/26 08:14:51;;;;;;;4.82;0.80;;;7.00;99.90;;;;;;5090778;28;20459;-40
2022/12/26 08:17:17;;;;;;;5.00;1.08;;;7.00;99.90;;;;;;5090333;28;20039;-39
2022/12/26 08:19:43;;;;;;;3.58;1.00;;;6.90;99.90;;;;;;5072617;28;20028;-40
2022/12/26 08:22:08;;;;;;;4.50;1.20;;;6.80;99.90;;;;;;5090533;28;20020;-39
2022/12/26 08:24:34;;;;;;;2.42;0.70;;;6.70;99.90;;;;;;5090470;28;20024;-39
2022/12/26 08:27:00;;;;;;;2.50;0.70;;;6.70;99.90;;;;;;5090575;28;20012;-44
2022/12/26 08:29:25;;;;;;;1.75;0.75;;;6.60;99.90;;;;;;5090090;28;20066;-47
2022/12/26 08:31:51;;;;;;;4.32;0.73;;;6.60;99.90;;;;;;5090292;28;20024;-46
2022/12/26 08:34:18;;;;;;;2.83;0.70;;;6.50;99.90;;;;;;5090477;28;20055;-41
2022/12/26 08:36:43;;;;;;;1.63;0.70;;;6.60;99.90;;;;;;5090867;28;20101;-40
2022/12/26 08:39:09;;;;;;;6.13;0.80;;;6.50;99.90;;;;;;5072786;28;20051;-42
2022/12/26 08:41:35;;;;;;;4.63;1.25;;;6.50;99.90;;;;;;5090094;28;20478;-47
2022/12/26 08:44:00;;;;;;;5.13;1.00;;;6.50;99.90;;;;;;5092928;28;20031;-48
2022/12/26 08:46:26;;;;;;;1.75;0.70;;;6.40;99.90;;;;;;5093836;28;20158;-48
2022/12/26 08:48:52;;;;;;;3.85;0.70;;;6.40;99.90;;;;;;5075803;28;20544;-38
2022/12/26 08:51:21;;;;;;;2.83;0.80;;;6.40;99.90;;;;;;5093944;28;20391;-50
2022/12/26 08:53:48;;;;;;;6.68;1.15;;;6.50;99.90;;;;;;5093976;28;20028;-47
2022/12/26 08:56:17;;;;;;;5.88;1.55;;;6.40;99.90;;;;;;5093898;28;20028;-38
2022/12/26 08:58:43;;;;;;;3.10;1.25;;;6.40;99.90;;;;;;5093743;28;20028;-51
2022/12/26 09:01:13;;;;;;;3.78;1.35;;;6.30;99.90;;;;;;5093671;28;20073;-42
2022/12/26 09:03:39;;;;;;;5.47;1.30;;;6.30;99.90;;;;;;5079510;28;20113;-38
2022/12/26 09:06:06;;;;;;;3.10;1.10;;;6.20;99.90;;;;;;5093723;28;20059;-51
2022/12/26 09:08:33;;;;;;;3.08;0.80;;;6.10;99.90;;;;;;5093631;28;20028;-43
2022/12/26 09:11:10;;;;;;;2.05;0.70;;;6.00;99.90;;;;;;5093576;28;20039;-42
2022/12/26 09:13:36;;;;;;;2.33;0.80;;;6.00;99.90;;;;;;5093650;28;20027;-42
2022/12/26 09:16:04;;;;;;;4.18;1.00;;;6.00;99.90;;;;;;5093458;28;20020;-39
2022/12/26 09:18:30;;;;;;;6.03;1.15;;;6.10;99.90;;;;;;5075343;28;20028;-40
2022/12/26 09:20:59;;;;;;;2.47;0.70;;;6.20;99.90;;;;;;5093534;28;20020;-41
2022/12/26 09:23:25;;;;;;;4.50;0.98;;;6.20;99.90;;;;;;5093446;28;20391;-51
2022/12/26 09:25:51;;;;;;;3.03;0.68;;;6.20;99.90;;;;;;5093352;28;20356;-42
2022/12/26 09:28:17;;;;;;;4.43;0.90;;;6.30;99.90;;;;;;5093114;28;20023;-52
2022/12/26 09:30:43;;;;;;;4.85;0.75;;;6.30;99.90;;;;;;5093153;28;20113;-50
2022/12/26 09:33:09;;;;;;;3.05;1.13;;;6.30;99.90;;;;;;5093305;28;20068;-46
2022/12/26 09:35:38;;;;;;;1.83;0.80;;;6.40;99.90;;;;;;5075036;28;20048;-54
2022/12/26 09:38:03;;;;;;;3.80;0.80;;;6.50;99.90;;;;;;5083685;28;20087;-44
2022/12/26 09:40:39;;;;;;;8.55;0.98;;;6.50;99.90;;;;;;5072706;28;20115;-44
2022/12/26 09:43:25;;;;;;;2.95;1.10;;;6.60;99.90;;;;;;5072573;28;20069;-51
2022/12/26 09:46:05;;;;;;;4.28;1.10;;;6.50;99.90;;;;;;5072435;28;20036;-50
2022/12/26 09:48:49;;;;;;;4.25;0.90;;;6.40;99.90;;;;;;5071952;28;20495;-41
2022/12/26 09:51:15;;;;;;;7.65;0.93;;;6.40;99.90;;;;;;5072452;28;20085;-42
2022/12/26 09:53:42;;;;;;;3.38;0.88;;;6.50;99.90;;;;;;5072599;28;20020;-50
2022/12/26 09:56:14;;;;;;;5.82;0.80;;;6.50;99.90;;;;;;5072166;28;20040;-43
2022/12/26 09:59:01;;;;;;;3.85;0.73;;;6.60;99.90;;;;;;5071356;28;20476;-52
2022/12/26 10:01:31;;;;;;;7.13;1.13;;;6.70;99.90;;;;;;5072110;28;20039;-46
2022/12/26 10:03:58;;;;;;;4.05;1.02;;;6.80;99.90;;;;;;5071353;28;20067;-50
2022/12/26 10:06:37;;;;;;;5.90;1.10;;;6.90;99.90;;;;;;5092691;28;20031;-51
2022/12/26 10:09:17;;;;;;;7.00;0.82;;;7.00;99.90;;;;;;5092631;28;20028;-39
2022/12/26 10:12:04;;;;;;;5.28;0.80;;;7.30;99.90;;;;;;5092653;28;20509;-46
2022/12/26 10:14:44;;;;;;;3.22;0.80;;;7.60;99.90;;;;;;5092388;28;20102;-40
2022/12/26 10:17:24;;;;;;;6.05;1.08;;;7.80;99.90;;;;;;5087730;28;20016;-46
2022/12/26 10:20:08;;;;;;;7.25;1.30;;;7.90;99.90;;;;;;5061914;28;20115;-42
2022/12/26 10:22:59;;;;;;;4.05;0.98;;;8.50;99.90;;;;;;5071696;28;20027;-48
2022/12/26 10:25:49;;;;;;;10.18;1.17;;;9.70;99.90;;;;;;5071961;28;20021;-49
2022/12/26 10:28:29;;;;;;;2.60;0.77;;;9.90;99.90;;;;;;5061013;28;20031;-47
2022/12/26 10:30:57;;;;;;;4.20;1.35;;;9.50;99.90;;;;;;5071474;28;20040;-49
2022/12/26 10:33:54;;;;;;;2.30;0.73;;;9.10;99.90;;;;;;5071386;28;20020;-48
2022/12/26 10:36:43;;;;;;;3.05;0.70;;;8.60;99.90;;;;;;5070243;28;20033;-39
2022/12/26 10:39:26;;;;;;;4.57;1.00;;;9.00;99.90;;;;;;5071029;28;20025;-39
2022/12/26 10:41:57;;;;;;;2.83;0.80;;;10.90;99.90;;;;;;5043186;28;20025;-42
2022/12/26 10:44:22;;;;;;;1.90;0.60;;;13.10;99.90;;;;;;5071280;28;20044;-40
2022/12/26 10:47:00;;;;;;;11.57;5.95;;;14.90;98.60;;;;;;5071414;28;20068;-49
2022/12/26 10:49:26;;;;;;;6.68;2.55;;;16.50;95.10;;;;;;5071321;28;20039;-52
2022/12/26 10:51:55;;;;;;;2.88;1.25;;;17.60;89.80;;;;;;5071639;28;20052;-55
2022/12/26 10:54:22;;;;;;;2.85;0.90;;;18.10;85.60;;;;;;5071394;28;20023;-49
2022/12/26 10:56:50;;;;;;;3.38;0.82;;;18.50;81.50;;;;;;5070940;28;20040;-53
2022/12/26 10:59:20;;;;;;;2.70;0.88;;;18.10;76.50;;;;;;5071364;28;20032;-39
2022/12/26 11:01:47;;;;;;;2.10;0.80;;;18.70;77.50;;;;;;5070992;28;20444;-38
2022/12/26 11:04:22;;;;;;;4.43;0.70;;;19.10;74.80;;;;;;5075645;28;20103;-38
2022/12/26 11:06:51;;;;;;;3.25;0.70;;;19.70;69.80;;;;;;5090763;28;20028;-47
2022/12/26 11:09:37;;;;;;;3.03;0.70;;;19.10;71.10;;;;;;5069508;28;20036;-41
2022/12/26 11:12:04;;;;;;;2.53;0.75;;;18.20;70.00;;;;;;5070571;28;20028;-49
2022/12/26 11:14:39;;;;;;;2.33;0.70;;;18.50;71.60;;;;;;5070560;28;20029;-41
2022/12/26 11:17:10;;;;;;;2.97;0.70;;;18.80;68.80;;;;;;5070344;28;20406;-50
2022/12/26 11:19:43;;;;;;;2.78;0.57;;;18.40;69.90;;;;;;5070702;28;20017;-44
2022/12/26 11:22:25;;;;;;;4.28;0.70;;;18.40;69.30;;;;;;5070985;28;20032;-40
2022/12/26 11:25:09;;;;;;;2.38;0.70;;;18.40;70.50;;;;;;5069531;28;20040;-47
2022/12/26 11:27:37;;;;;;;1.55;0.57;;;18.80;66.30;;;;;;5070704;28;20028;-42
2022/12/26 11:30:25;;;;;;;1.38;0.70;;;18.90;67.40;;;;;;5069693;28;20521;-40
2022/12/26 11:33:08;;;;;;;2.30;0.80;;;18.90;66.60;;;;;;5068879;28;20024;-48
2022/12/26 11:35:36;;;;;;;3.28;0.68;;;19.10;65.10;;;;;;5070169;28;20051;-46
2022/12/26 11:38:11;;;;;;;4.78;0.80;;;18.90;66.00;;;;;;5069843;28;20178;-41
2022/12/26 11:41:30;;;;;;;4.05;0.80;;;19.40;64.80;;;;;;5060562;28;20032;-43
2022/12/26 11:43:32;;;;;;;2.55;0.70;;;19.30;61.30;;;;;;5069917;28;20024;-40
2022/12/26 11:45:58;;;;;;;1.83;0.60;;;18.90;63.50;;;;;;5070218;28;20051;-42
2022/12/26 11:48:26;;;;;;;3.72;1.15;;;19.10;63.70;;;;;;5070190;28;20043;-41
2022/12/26 11:50:52;;;;;;;5.78;1.13;;;19.50;61.70;;;;;;5070196;28;20025;-43
2022/12/26 11:53:21;;;;;;;3.00;0.88;;;19.30;61.90;;;;;;5069975;28;20020;-52
2022/12/26 11:56:01;;;;;;;4.00;0.80;;;19.60;60.00;;;;;;5052191;28;20024;-42
2022/12/26 11:58:31;;;;;;;2.40;0.60;;;19.60;62.20;;;;;;5069784;28;20070;-40
2022/12/26 12:01:00;;;;;;;4.38;0.95;;;19.90;59.60;;;;;;5069921;28;20040;-41
2022/12/26 12:03:34;;;;;;;4.30;0.90;;;19.70;59.80;;;;;;5069275;28;20024;-43
2022/12/26 12:06:12;;;;;;;5.13;0.90;;;20.20;59.30;;;;;;5070153;28;20036;-44
2022/12/26 12:09:10;;;;;;;3.80;0.80;;;20.30;58.90;;;;;;5068885;28;20495;-39
2022/12/26 12:11:44;;;;;;;6.50;2.20;;;20.40;56.90;;;;;;5055741;28;20032;-46
2022/12/26 12:14:22;;;;;;;7.03;2.67;;;20.50;57.80;;;;;;5070334;28;20028;-38
2022/12/26 12:17:07;;;;;;;4.75;1.85;;;20.30;54.40;;;;;;5069839;28;20515;-45
2022/12/26 12:19:45;;;;;;;5.35;0.75;;;19.80;56.90;;;;;;5073663;28;20132;-42
2022/12/26 12:22:31;;;;;;;2.63;0.80;;;19.60;56.50;;;;;;5073748;28;20020;-43
2022/12/26 12:25:34;;;;;;;4.93;1.40;;;19.50;57.60;;;;;;5072231;28;20056;-48
2022/12/26 12:28:11;;;;;;;5.70;0.80;;;19.60;57.50;;;;;;5073697;28;20059;-44
2022/12/26 12:31:07;;;;;;;3.58;1.00;;;19.60;58.00;;;;;;5073403;28;20052;-49
2022/12/26 12:33:47;;;;;;;5.82;1.13;;;19.40;58.50;;;;;;5072059;28;20095;-45
2022/12/26 12:36:57;;;;;;;3.45;0.90;;;18.90;59.20;;;;;;5071611;28;20452;-53
2022/12/26 12:39:46;;;;;;;5.78;1.17;;;19.20;60.00;;;;;;5070904;28;20028;-44
2022/12/26 12:42:17;;;;;;;3.33;1.08;;;19.10;58.90;;;;;;5069100;28;20454;-43
2022/12/26 12:45:02;;;;;;;5.65;2.33;;;19.10;60.00;;;;;;5073404;28;20024;-48
2022/12/26 12:47:36;;;;;;;4.70;2.60;;;19.20;59.80;;;;;;5068969;28;20031;-46
2022/12/26 12:50:20;;;;;;;10.82;6.18;;;18.70;60.00;;;;;;5073628;28;20040;-46
2022/12/26 12:53:19;;;;;;;15.60;9.57;;;18.00;61.10;;;;;;5066071;28;20024;-42
2022/12/26 12:56:18;;;;;;;5.63;1.67;;;17.70;62.50;;;;;;5062582;28;20028;-43
2022/12/26 12:58:52;;;;;;;5.97;2.58;;;17.80;64.10;;;;;;5072990;28;20048;-51
2022/12/26 13:01:24;;;;;;;9.55;5.00;;;18.20;64.10;;;;;;5073418;28;20028;-40
2022/12/26 13:04:00;;;;;;;9.50;4.63;;;18.00;62.00;;;;;;5074782;28;20511;-42
2022/12/26 13:06:47;;;;;;;8.25;2.63;;;17.50;63.40;;;;;;5093838;28;20027;-42
2022/12/26 13:09:28;;;;;;;5.43;2.30;;;17.50;62.50;;;;;;5093509;28;20056;-44
2022/12/26 13:12:01;;;;;;;6.93;3.85;;;16.90;63.80;;;;;;5085688;28;20036;-40
2022/12/26 13:14:42;;;;;;;10.30;4.75;;;16.40;63.10;;;;;;5073159;28;20020;-41
2022/12/26 13:17:30;;;;;;;8.63;3.22;;;15.00;64.20;;;;;;5073049;28;20032;-38
2022/12/26 13:20:14;;;;;;;8.38;4.03;;;13.60;69.30;;;;;;5063370;28;20036;-46
2022/12/26 13:25:33;;;;;;;19.10;9.90;;;14.20;68.60;;;;;;5073195;28;20111;-42
2022/12/26 13:28:08;;;;;;;20.08;9.45;;;13.90;68.50;;;;;;5070694;28;20024;-51
2022/12/26 13:30:37;;;;;;;8.98;4.15;;;13.10;69.90;;;;;;5071358;28;20044;-42
2022/12/26 13:33:03;;;;;;;15.25;8.07;;;12.10;73.10;;;;;;5072346;28;20020;-39
2022/12/26 13:35:48;;;;;;;11.88;6.60;;;12.20;71.50;;;;;;5054533;28;20077;-41
2022/12/26 13:38:14;;;;;;;9.48;3.88;;;13.60;70.30;;;;;;5072255;28;20111;-44
2022/12/26 13:40:52;;;;;;;10.38;2.95;;;14.80;66.70;;;;;;5072383;28;20091;-41
2022/12/26 13:46:35;;;;;;;41.72;18.23;;;15.60;63.90;;;;;;5072874;28;20375;-43
2022/12/26 13:49:01;;;;;;;22.52;11.68;;;15.60;63.70;;;;;;5072563;28;20063;-41
2022/12/26 13:51:48;;;;;;;61.53;35.83;;;15.50;63.70;;;;;;5053990;28;20113;-43
2022/12/26 13:54:15;;;;;;;4.82;1.77;;;15.60;63.20;;;;;;5071997;28;20025;-46
2022/12/26 13:56:40;;;;;;;5.20;1.52;;;15.50;63.00;;;;;;5072054;28;20043;-40
2022/12/26 13:59:06;;;;;;;6.70;2.30;;;15.50;62.50;;;;;;5071669;28;20020;-38
2022/12/26 14:02:15;;;;;;;3.88;1.30;;;15.30;62.70;;;;;;5072242;28;20033;-38
2022/12/26 14:05:13;;;;;;;8.50;2.60;;;14.80;63.90;;;;;;5067703;28;20040;-38
2022/12/26 14:07:53;;;;;;;6.70;3.67;;;14.40;67.00;;;;;;5071325;28;20135;-45
2022/12/26 14:10:38;;;;;;;11.32;6.03;;;14.50;67.20;;;;;;5071820;28;20032;-41
2022/12/26 14:13:12;;;;;;;15.25;6.75;;;14.70;65.90;;;;;;5065966;28;20123;-38
2022/12/26 14:15:46;;;;;;;39.10;20.17;;;14.70;67.40;;;;;;5071385;28;20241;-39
2022/12/26 14:18:43;;;;;;;5.65;2.55;;;14.10;69.60;;;;;;5069142;28;20025;-40
2022/12/26 14:21:14;;;;;;;6.60;2.22;;;13.60;68.80;;;;;;5071978;28;20025;-45
2022/12/26 14:23:52;;;;;;;15.68;7.65;;;13.10;70.50;;;;;;5068822;28;20047;-41
2022/12/26 14:26:26;;;;;;;5.72;2.58;;;12.80;71.80;;;;;;5070981;28;20028;-42
2022/12/26 14:29:14;;;;;;;7.28;3.30;;;12.20;71.90;;;;;;5071216;28;20075;-44
2022/12/26 14:32:04;;;;;;;4.68;1.30;;;12.00;73.30;;;;;;5081701;28;20166;-40
2022/12/26 14:34:51;;;;;;;4.60;1.73;;;11.80;75.10;;;;;;5081355;28;20032;-38
2022/12/26 14:37:30;;;;;;;6.00;2.95;;;11.30;75.60;;;;;;5090424;28;20031;-39
2022/12/26 14:40:15;;;;;;;;;;;10.80;77.10;;;;;;5072502;28;20048;-38
2022/12/26 14:43:11;;;;;;;6.03;1.80;;;10.40;78.10;;;;;;5070787;28;19915;-43
2022/12/26 14:45:37;;;;;;;8.50;3.50;;;9.80;81.20;;;;;;5069071;28;20063;-41
2022/12/26 14:48:22;;;;;;;8.48;2.80;;;9.40;83.00;;;;;;5070969;28;20090;-40
2022/12/26 14:50:48;;;;;;;5.55;1.30;;;9.00;85.20;;;;;;5069953;28;20291;-39
2022/12/26 14:53:29;;;;;;;7.22;2.13;;;8.80;86.50;;;;;;5070442;28;20439;-42
2022/12/26 14:56:01;;;;;;;5.50;1.70;;;8.60;87.20;;;;;;5070784;28;20547;-39
2022/12/26 14:58:40;;;;;;;5.68;1.17;;;8.50;88.90;;;;;;5071025;28;20033;-46
2022/12/26 15:01:09;;;;;;;2.63;0.90;;;8.40;90.00;;;;;;5070322;28;20036;-39
2022/12/26 15:04:08;;;;;;;4.93;1.13;;;8.30;90.10;;;;;;5070254;28;20032;-39
2022/12/26 15:07:27;;;;;;;6.85;1.80;;;8.20;90.90;;;;;;5070141;28;20052;-39
2022/12/26 15:10:31;;;;;;;6.05;1.23;;;8.20;91.80;;;;;;4969723;28;20375;-39
2022/12/26 15:13:22;;;;;;;12.82;4.80;;;8.10;91.60;;;;;;5070021;28;20036;-39
2022/12/26 15:16:20;;;;;;;13.07;5.00;;;8.00;92.10;;;;;;5070273;28;20028;-41
2022/12/26 15:19:04;;;;;;;7.43;3.17;;;7.90;92.30;;;;;;5070375;28;20033;-39
2022/12/26 15:21:51;;;;;;;9.48;3.92;;;7.80;92.70;;;;;;5068925;28;20012;-39
2022/12/26 15:24:54;;;;;;;10.65;3.67;;;7.80;93.10;;;;;;5074008;28;20028;-44
2022/12/26 15:27:45;;;;;;;11.50;3.65;;;7.70;93.60;;;;;;5080731;28;20025;-41
2022/12/26 15:30:24;;;;;;;11.68;5.00;;;7.50;93.90;;;;;;5061170;28;20135;-45
2022/12/26 15:32:59;;;;;;;;;;;7.50;94.50;;;;;;5071098;28;20025;-42